Time;durP1;ratioP1;P1;durP2;ratioP2;P2;SDS_P1;SDS_P2;PMS_P1;PMS_P2;Temp;Humidity;BMP_temperature;BMP_pressure;BME280_temperature;BME280_humidity;BME280_pressure;Samples;Min_cycle;Max_cycle;Signal;HPM_P1;HPM_P2
2021/09/04 00:01:12;;;;;;;6.80;5.90;;;;;;;22.64;44.15;94583.40;828373;71;32299;-77
2021/09/04 00:16:10;;;;;;;7.70;7.10;;;;;;;20.60;47.76;94604.11;828278;71;28675;-77
2021/09/04 00:31:12;;;;;;;8.70;6.35;;;;;;;21.28;49.87;94610.59;828215;71;32102;-76
2021/09/04 00:46:11;;;;;;;6.80;6.20;;;;;;;21.64;47.24;94605.36;828136;71;30270;-77
2021/09/04 01:01:13;;;;;;;6.42;5.92;;;;;;;21.73;46.54;94597.10;834006;71;32578;-77
2021/09/04 01:16:08;;;;;;;7.03;6.42;;;;;;;21.67;46.58;94571.82;834275;71;29735;-79
2021/09/04 01:31:09;;;;;;;6.70;6.10;;;;;;;21.67;46.31;94555.22;833954;71;29740;-78
2021/09/04 01:46:21;;;;;;;7.67;6.87;;;;;;;21.55;46.55;94552.19;827481;71;32645;-78
2021/09/04 02:01:10;;;;;;;7.60;6.45;;;;;;;21.50;46.62;94551.14;828281;71;31175;-78
2021/09/04 02:16:10;;;;;;;7.22;6.53;;;;;;;21.40;46.65;94544.45;834962;71;30393;-81
2021/09/04 02:31:08;;;;;;;8.40;7.50;;;;;;;21.34;46.56;94533.09;828359;71;30183;-77
2021/09/04 02:46:12;;;;;;;7.67;6.87;;;;;;;21.22;46.97;94516.69;828731;71;32046;-78
2021/09/04 03:16:14;;;;;;;8.43;7.62;;;;;;;19.98;50.80;94515.16;833899;71;32756;-78
2021/09/04 03:31:08;;;;;;;9.10;7.78;;;;;;;20.60;48.95;94519.36;829452;71;29766;-78
2021/09/04 03:46:15;;;;;;;10.38;9.35;;;;;;;20.71;48.46;94519.56;833982;71;33101;-81
2021/09/04 04:01:15;;;;;;;8.63;7.80;;;;;;;20.78;48.27;94526.35;834206;71;32644;-78
2021/09/04 04:16:08;;;;;;;8.48;7.55;;;;;;;21.13;47.46;94519.59;808677;71;29797;-78
2021/09/04 04:31:15;;;;;;;8.10;7.30;;;;;;;21.88;45.92;94537.98;822504;71;32884;-77
2021/09/04 04:46:14;;;;;;;8.85;7.45;;;;;;;22.56;44.71;94550.43;827595;71;32640;-79
2021/09/04 05:01:11;;;;;;;7.87;7.10;;;;;;;21.99;46.22;94562.41;825499;71;31521;-78
2021/09/04 05:16:10;;;;;;;9.98;8.95;;;;;;;20.86;48.23;94560.61;808504;71;30304;-77
2021/09/04 05:31:09;;;;;;;12.18;10.88;;;;;;;19.70;50.85;94560.52;827207;71;30750;-76
2021/09/04 05:46:14;;;;;;;13.70;11.33;;;;;;;19.41;52.09;94560.59;815247;71;32764;-75
2021/09/04 06:01:09;;;;;;;13.95;11.05;;;;;;;21.28;52.70;94562.55;825055;71;30192;-77
2021/09/04 06:16:18;;;;;;;10.53;9.15;;;;;;;22.94;48.02;94563.90;833954;71;32685;-79
2021/09/04 06:31:16;;;;;;;11.07;9.97;;;;;;;24.35;44.75;94558.11;827291;71;32676;-77
2021/09/04 06:46:19;;;;;;;11.50;10.33;;;;;;;25.47;41.44;94547.26;824234;71;32724;-78
2021/09/04 07:01:51;;;;;;;13.00;11.03;;;;;;;26.72;38.61;94561.23;829414;70;32680;-83
2021/09/04 07:16:26;;;;;;;12.70;11.43;;;;;;;;;;819667;71;32724;-78
2021/09/04 07:31:22;;;;;;;15.47;11.43;;;;;;;26.33;37.66;94542.45;827995;71;32712;-78
2021/09/04 07:46:13;;;;;;;12.47;10.37;;;;;;;26.10;37.44;94550.95;828738;71;29775;-76
2021/09/04 08:01:11;;;;;;;11.17;9.93;;;;;;;26.48;37.04;94564.15;829060;71;29708;-77
2021/09/04 08:16:10;;;;;;;11.70;9.43;;;;;;;27.77;100.00;123554.15;834037;71;30485;-80
2021/09/04 08:31:29;;;;;;;9.60;8.73;;;;;;;29.17;33.48;94561.47;828314;71;33630;-77
2021/09/04 08:46:44;;;;;;;10.17;8.67;;;;;;;29.06;33.60;94572.98;830725;71;32825;-79
2021/09/04 09:16:14;;;;;;;8.90;8.13;;;;;;;30.65;30.65;94566.74;828528;71;30735;-78
2021/09/04 09:31:08;;;;;;;7.63;6.87;;;;;;;30.77;30.05;94538.27;828307;71;30428;-80
2021/09/04 09:46:18;;;;;;;8.43;7.63;;;;;;;31.18;29.59;94510.71;827365;71;32723;-78
2021/09/04 10:01:10;;;;;;;8.53;7.77;;;;;;;30.91;29.85;94484.56;831027;71;30740;-75
2021/09/04 10:16:19;;;;;;;7.97;7.27;;;;;;;31.01;29.47;94485.52;834116;71;33241;-80
2021/09/04 10:31:08;;;;;;;7.50;7.00;;;;;;;31.53;29.05;94452.82;828391;71;29705;-81
2021/09/04 10:46:15;;;;;;;7.53;6.93;;;;;;;32.08;28.61;94451.06;833792;71;32684;-80
2021/09/04 11:01:35;;;;;;;8.10;7.33;;;;;;;32.00;28.01;94453.05;821056;71;32872;-78
2021/09/04 11:16:38;;;;;;;7.77;7.17;;;;;;;30.95;28.49;94451.97;834174;71;29703;-76
2021/09/04 11:31:11;;;;;;;7.80;7.10;;;;;;;30.18;29.01;94445.72;828304;71;30341;-78
2021/09/04 11:46:20;;;;;;;7.30;6.70;;;;;;;30.24;29.44;94440.59;829868;71;32771;-78
2021/09/04 12:01:09;;;;;;;8.70;7.90;;;;;;;30.27;30.07;94418.88;834012;71;30718;-79
2021/09/04 12:16:17;;;;;;;7.50;6.80;;;;;;;30.30;28.57;94397.75;834766;71;32658;-76
2021/09/04 12:31:19;;;;;;;7.20;6.60;;;;;;;29.02;30.20;94377.72;828346;71;30340;-77
2021/09/04 12:46:09;;;;;;;7.80;7.20;;;;;;;29.15;30.18;94361.11;828277;71;29744;-75
2021/09/04 13:01:15;;;;;;;7.20;6.60;;;;;;;27.89;31.18;94340.41;828451;71;30334;-78
2021/09/04 13:16:10;;;;;;;7.60;6.97;;;;;;;27.84;31.23;94330.81;828996;71;29691;-79
2021/09/04 13:31:24;;;;;;;7.40;6.80;;;;;;;27.63;31.13;94321.59;828545;71;30266;-77
2021/09/04 13:46:21;;;;;;;8.10;7.40;;;;;;;;;;829950;70;30981;-78
2021/09/04 13:47:25;;;;;;;7.90;7.17;;;;;;;;;;810965;72;26719;-77
2021/09/04 14:01:18;;;;;;;7.67;6.97;;;;;;;;;;828542;71;30319;-78
2021/09/04 14:16:23;;;;;;;7.20;6.60;;;;;;;26.77;32.90;94299.64;827212;71;32706;-77
2021/09/04 14:31:29;;;;;;;7.20;6.60;;;;;;;26.73;32.70;94306.98;828326;71;29737;-77
2021/09/04 14:46:14;;;;;;;7.80;7.10;;;;;;;26.54;32.97;94302.08;828203;71;30174;-77
2021/09/04 15:16:14;;;;;;;7.50;6.90;;;;;;;26.33;33.22;94287.59;820130;71;32817;-74
2021/09/04 15:31:15;;;;;;;7.57;6.97;;;;;;;25.90;33.66;94283.80;825071;71;32909;-76
2021/09/04 15:46:18;;;;;;;9.47;7.83;;;;;;;25.58;33.75;94272.56;819965;71;32727;-79
2021/09/04 16:01:15;;;;;;;7.33;6.70;;;;;;;25.16;34.40;94289.52;821572;71;29827;-77
2021/09/04 16:16:08;;;;;;;7.50;6.80;;;;;;;24.88;34.92;94284.39;835387;71;29706;-78
2021/09/04 16:31:14;;;;;;;8.10;7.30;;;;;;;24.58;35.42;94291.48;827658;71;32760;-76
2021/09/04 16:46:25;;;;;;;8.40;7.30;;;;;;;23.44;40.54;94301.98;822863;71;32604;-77
2021/09/04 17:01:26;;;;;;;7.80;7.20;;;;;;;22.56;42.82;94322.33;822486;71;32899;-77
2021/09/04 17:16:25;;;;;;;9.23;8.40;;;;;;;22.23;43.61;94352.55;827531;71;32661;-77
2021/09/04 17:31:15;;;;;;;11.80;9.40;;;;;;;22.04;44.19;94366.81;833969;71;29772;-78
2021/09/04 17:46:18;;;;;;;8.93;8.10;;;;;;;21.90;45.20;94387.47;827460;71;32684;-76
2021/09/04 18:01:16;;;;;;;17.37;10.40;;;;;;;21.59;45.80;94415.49;827553;71;32732;-77
2021/09/04 18:16:28;;;;;;;12.88;8.48;;;;;;;21.45;47.41;94431.84;833982;71;32536;-77
2021/09/04 18:31:36;;;;;;;11.10;9.93;;;;;;;21.19;47.98;94444.78;828184;71;29719;-78
2021/09/04 18:46:40;;;;;;;10.50;9.13;;;;;;;20.82;49.36;94457.84;827448;71;32814;-77
2021/09/04 19:01:26;;;;;;;12.65;11.55;;;;;;;20.63;50.59;94461.31;827444;71;32751;-76
2021/09/04 19:16:20;;;;;;;15.60;11.25;;;;;;;20.53;51.89;94464.52;827559;71;33176;-75
2021/09/04 19:31:12;;;;;;;13.62;11.15;;;;;;;20.41;52.98;94470.19;828238;71;29686;-76
2021/09/04 19:46:10;;;;;;;13.20;12.00;;;;;;;20.21;52.82;94455.32;828059;71;30271;-76
2021/09/04 20:01:22;;;;;;;11.18;10.10;;;;;;;20.10;53.64;94478.32;828045;71;30185;-76
2021/09/04 20:16:20;;;;;;;11.65;10.28;;;;;;;19.98;54.18;94474.64;834839;71;30097;-77
2021/09/04 20:31:41;;;;;;;15.32;13.72;;;;;;;19.89;55.29;94480.73;834156;71;32863;-79
2021/09/04 20:46:17;;;;;;;11.45;10.40;;;;;;;19.84;54.53;94505.53;833962;71;30334;-78
2021/09/04 21:16:26;;;;;;;11.68;10.30;;;;;;;19.38;55.56;94504.61;834012;71;32799;-78
2021/09/04 21:31:22;;;;;;;11.05;9.95;;;;;;;19.17;56.36;94518.92;834634;71;30227;-76
2021/09/04 21:46:46;;;;;;;13.18;11.75;;;;;;;18.96;56.63;94525.80;833892;71;33443;-76
2021/09/04 22:01:17;;;;;;;15.00;13.25;;;;;;;18.76;56.54;94523.53;828374;71;30219;-78
2021/09/04 22:16:16;;;;;;;10.63;9.63;;;;;;;18.52;56.44;94522.30;828326;71;31011;-77
2021/09/04 22:31:16;;;;;;;11.28;10.08;;;;;;;18.37;57.11;94514.46;828286;71;32043;-78
2021/09/04 22:32:20;;;;;;;11.33;9.73;;;;;;;18.33;57.37;94518.90;808711;73;26648;-76
2021/09/04 22:46:30;;;;;;;11.30;9.93;;;;;;;18.18;57.57;94511.08;830325;71;32844;-78
2021/09/04 23:01:24;;;;;;;11.97;9.43;;;;;;;17.97;58.38;94497.40;828055;71;30334;-76
2021/09/04 23:16:37;;;;;;;10.05;9.05;;;;;;;17.72;58.65;94492.65;829091;71;30357;-77
2021/09/04 23:31:23;;;;;;;10.23;9.20;;;;;;;17.52;59.39;94486.34;829431;71;32022;-76
2021/09/04 23:46:16;;;;;;;10.58;9.58;;;;;;;17.34;59.81;94490.31;828687;71;29735;-78
